Etusivu
METAR-TAF:

METAR-TAF

Lentoasemat :

Colmar, Ranska

Leveyspiiri: 48-06-37N, Pituuspiiri: 7-21-33E, korkeus merenpinnasta: 191 m

Tämänhetkinen sää

Tämä raportti tehtiin 24 minuuttia sitten, kello 18.00 UTC
Tuuli 10 kn pohjoisesta
Lämpötila 1°C
Kosteus 93%
Ilmanpaine 1007 hPa
Näkyvyys 10 km tai enemmän
Muutamia pilviä 700 ft:n korkeudessa
Pilvistä 3800 ft:n korkeudessa

METAR: LFGA 191800Z AUTO 01010KT 9999 FEW007 OVC038 01/M00 Q1007

Aika: 19:24 (18:24 UTC)


TAF: puuttuu

Säähavainnot ja -ennusteet yli 4000 lentoasemalta (METAR- ja TAF-raportit).

Käytössä olevat sääasemat on merkitty karttaan keltaisilla ja punaisilla pisteillä.

Aseta hiiri pisteen päälle nähdäksesi sääaseman nimen.

Klikkaa sitten nähdäksesi säähavainnot ja -ennusteet.

Kartan vaihtaminen: klikkaa mustalla rastilla varustettuja vihreitä pisteitä, niin voit zoomata sisään; viivalla varustettua vihreää pistettä, niin voit zoomata ulos tai vihreitä nuolia, niin pääset viereisille kartoille.


METAR-TAF: